Buoy 46928

sailwx.info

Track history (hours):
 
Tides and Currents Weather Stations Pressure Air Temp Water Temp Dewpoint Dewpoint Depression Visibility Wind Speed Wind Dir Waves Ship Positions

Drifting buoy 46928

Last reported at 2014-Oct-21 07:30 UTC. Time now 2014-Oct-21 10:20 UTC.
Position N 46°10' W 149°19'.

Barometer 1000.1 mb
Water temperature 12.5 ° C

Date/timePositionNaut miles runAvg speedWind from/ knotsBaromVisibWave heightAir tempDewpointWater temp
2014-Oct-21 07:30N 46°10' W 149°19'0 0.2 1000.1 12.5
2014-Oct-21 06:30N 46°10' W 149°19'2 2.0 1000.3 12.5
2014-Oct-21 05:30N 46°11' W 149°22'0 0.0 1000.1 12.5
2014-Oct-21 04:30N 46°11' W 149°22'1 0.6 1000.1 12.5
2014-Oct-21 03:30N 46°11' W 149°22'3 1.4 999.6 12.5
2014-Oct-21 01:30N 46°14' W 149°23'0 0.0 998.8 12.5
2014-Oct-21 00:30N 46°14' W 149°23'1 0.6 998.4 12.5
2014-Oct-20 23:30N 46°14' W 149°24'3 1.3 998.0 12.5
2014-Oct-20 21:30N 46°15' W 149°27'1 0.7 997.5 12.5
2014-Oct-20 19:30N 46°16' W 149°29'2 1.2 997.0 12.4
2014-Oct-20 17:30N 46°17' W 149°32'0 0.4 996.3 12.4
2014-Oct-20 16:30N 46°17' W 149°33'1 0.7 995.7 12.4
2014-Oct-20 14:30N 46°17' W 149°35'0 0.3 994.4 12.4
2014-Oct-20 13:30N 46°17' W 149°34'0 0.0 994.4 12.4
2014-Oct-20 12:30N 46°17' W 149°34'1 1.5 995.9 12.5
2014-Oct-20 11:30N 46°18' W 149°36'2 2.4 997.6 12.5
2014-Oct-20 10:30N 46°20' W 149°38'0 0.0 999.9 12.5
2014-Oct-20 09:30N 46°20' W 149°38'2 1.0 1001.5 12.5
2014-Oct-20 07:30N 46°20' W 149°41'2 0.9 1004.7 12.5
2014-Oct-20 05:30N 46°20' W 149°44'1 1.5 1007.0 12.5
2014-Oct-20 04:30N 46°20' W 149°46'2 0.8 1007.8 12.5
2014-Oct-20 02:30N 46°19' W 149°47'1 0.6 1008.8 12.5
2014-Oct-20 01:30N 46°18' W 149°48'0 0.1 1009.1 12.6
2014-Oct-19 21:30N 46°18' W 149°48'4 4.5 1009.0 12.6
2014-Oct-19 20:30N 46°23' W 149°47'1 0.3 1008.7 12.6
2014-Oct-19 16:30N 46°24' W 149°48'0 0.4 1006.4 12.7
2014-Oct-19 15:30N 46°24' W 149°48'2 2.1 1005.8 12.7
2014-Oct-19 14:30N 46°26' W 149°50'5 1.2 1005.2 12.8
2014-Oct-19 10:30N 46°26' W 149°57'0 0.0 1003.5 12.8
2014-Oct-19 08:30N 46°26' W 149°57'1 0.5 1002.3 12.8
2014-Oct-19 05:30N 46°26' W 149°55'4 1.0 1000.1 12.8
2014-Oct-19 01:30N 46°30' W 149°54'2 1.9 994.9 12.8
2014-Oct-19 00:30N 46°31' W 149°56'2 2.2 993.9 12.8
2014-Oct-18 23:30N 46°34' W 149°56'0 0.0 992.9 12.8
2014-Oct-18 22:30N 46°34' W 149°56'3 1.5 992.1 12.8
2014-Oct-18 20:30N 46°35' W 149°60'2 1.1 990.4 12.8
2014-Oct-18 18:30N 46°35' W 150°03'0 0.0 987.2 12.8
2014-Oct-18 17:30N 46°35' W 150°03'1 0.9 986.1 12.8
2014-Oct-18 16:30N 46°35' W 150°02'1 0.3 984.5 12.8
2014-Oct-18 14:30N 46°34' W 150°03'1 0.4 982.7 12.8
2014-Oct-18 12:30N 46°35' W 150°03'0 0.0 982.7 12.8
2014-Oct-18 11:30N 46°35' W 150°03'3 3.3 983.7 12.8
2014-Oct-18 10:30N 46°38' W 150°04'0 0.0 984.1 12.8
2014-Oct-18 07:30N 46°38' W 150°04'2 1.0 984.1 12.8
2014-Oct-18 05:30N 46°40' W 150°05'5 1.8 982.9 12.8
2014-Oct-18 02:30N 46°39' W 150°13'4 1.9 980.0 12.8
2014-Oct-18 00:30N 46°36' W 150°15'2 0.8 979.6 12.8
2014-Oct-17 22:30N 46°36' W 150°13'0 0.0 980.9 12.8
2014-Oct-17 21:30N 46°36' W 150°13'0 0.2 982.0 12.8
2014-Oct-17 20:30N 46°36' W 150°13'0 0.0 982.7 12.8
2014-Oct-17 19:30N 46°36' W 150°13'2 0.7 983.5 12.8
2014-Oct-17 16:30N 46°38' W 150°13'2 1.7 985.8 12.8
2014-Oct-17 15:30N 46°39' W 150°15'1 1.5 986.7 12.8
2014-Oct-17 14:30N 46°38' W 150°17'2 1.0 987.4 12.8
2014-Oct-17 12:30N 46°38' W 150°20'3 0.8 988.1 12.8
2014-Oct-17 08:30N 46°35' W 150°23'0 0.5 994.8 12.8
2014-Oct-17 07:30N 46°35' W 150°22'1 0.4 996.2 12.8
2014-Oct-17 04:30N 46°34' W 150°21'0 0.3 999.9 12.9
2014-Oct-17 03:30N 46°33' W 150°21'1 0.7 1000.5 12.9
2014-Oct-17 02:30N 46°34' W 150°21'2 0.8 1001.3 12.9
2014-Oct-17 00:30N 46°36' W 150°22'4 0.4 1002.9 12.9
2014-Oct-16 13:30N 46°33' W 150°27'5 0.6 1004.5 12.8
2014-Oct-16 05:30N 46°39' W 150°27'3 0.5 1002.0 12.9
2014-Oct-16 00:30N 46°37' W 150°29'0 0.4 999.0 12.9
2014-Oct-15 23:30N 46°37' W 150°30'2 0.9 998.8 12.9
2014-Oct-15 21:30N 46°35' W 150°28'5 1.0 998.7 12.9
2014-Oct-15 16:30N 46°37' W 150°22'1 0.7 997.5 12.9
2014-Oct-15 14:30N 46°38' W 150°21'3 1.1 997.7 12.9
2014-Oct-15 11:30N 46°38' W 150°26'0 0.0 1000.1 12.8
2014-Oct-15 08:30N 46°38' W 150°26'2 1.0 1003.5 12.9
2014-Oct-15 06:30N 46°36' W 150°28'3 0.8 1005.6 12.9
2014-Oct-15 02:30N 46°36' W 150°24'0 0.4 1008.7 12.9
2014-Oct-15 01:30N 46°36' W 150°24'3 1.2 1009.5 12.9
2014-Oct-14 22:30N 46°39' W 150°25'2 0.8 1012.5 12.9
2014-Oct-14 20:30N 46°40' W 150°26'3 3.2 1013.6 12.9
2014-Oct-14 19:30N 46°40' W 150°31'0 0.0 1014.3 12.9
2014-Oct-14 18:30N 46°40' W 150°31'0 0.1 1014.2 12.9
2014-Oct-14 15:30N 46°40' W 150°32'1 0.2 1014.2 12.9
2014-Oct-14 11:30N 46°39' W 150°31'6 1.3 1014.6 13.0
2014-Oct-14 06:30N 46°45' W 150°29'0 0.0 1012.2 13.1
2014-Oct-14 05:30N 46°45' W 150°29'3 1.4 1011.6 13.2
2014-Oct-14 03:30N 46°48' W 150°31'3 1.4 1010.6 13.2
2014-Oct-14 01:30N 46°50' W 150°34'2 1.2 1010.8 13.3
2014-Oct-13 23:30N 46°51' W 150°37'0 0.0 1010.8 13.3
2014-Oct-13 22:30N 46°51' W 150°37'1 0.7 1010.9 13.4
2014-Oct-13 20:30N 46°52' W 150°36'1 0.3 1011.6 13.5
2014-Oct-13 17:30N 46°53' W 150°36'1 0.5 1012.4 13.5
2014-Oct-13 15:30N 46°54' W 150°35'0 0.1 1012.6 13.5
2014-Oct-13 14:30N 46°54' W 150°35'1 0.9 1012.8 13.5
2014-Oct-13 13:30N 46°55' W 150°34'9 1.5 1012.8 13.5
2014-Oct-13 07:30N 46°59' W 150°46'0 0.1 1014.2 13.6
2014-Oct-13 03:30N 46°59' W 150°45'1 1.0 1013.5 13.7
2014-Oct-13 02:30N 46°59' W 150°44'1 0.7 1013.5 13.8
2014-Oct-13 01:30N 46°58' W 150°44'1 1.5 1013.3 13.8
2014-Oct-13 00:30N 46°59' W 150°43'2 2.2 1012.5 13.8
2014-Oct-12 23:30N 47°01' W 150°42'0 0.0 1012.4 13.8
2014-Oct-12 22:30N 47°01' W 150°42'1 0.8 1012.7 13.8
2014-Oct-12 20:40N 47°03' W 150°43'3 2.3 1012.9 13.8
2014-Oct-12 19:30N 47°05' W 150°46'2 1.6 1013.1 13.8
2014-Oct-12 18:30N 47°06' W 150°48'3 1.0 1012.9 13.8
2014-Oct-12 15:30N 47°05' W 150°52'0 0.0 1012.4 13.8
2014-Oct-12 14:30N 47°05' W 150°52'2 2.3 1011.8 13.8
2014-Oct-12 13:30N 47°04' W 150°54'0 0.0 1011.3 13.8
2014-Oct-12 12:30N 47°04' W 150°54'3 1.5 1011.6 13.8
2014-Oct-12 10:30N 47°02' W 150°50'1 0.2 1010.8 13.8
2014-Oct-12 07:30N 47°03' W 150°50'5 1.6 1010.2 13.9
2014-Oct-12 04:30N 47°07' W 150°52'0 0.0 1008.1 14.0
2014-Oct-12 03:30N 47°07' W 150°52'3 1.2 1007.0 14.0
2014-Oct-12 00:30N 47°09' W 150°57'3 2.8 1003.6 14.0
2014-Oct-11 23:30N 47°07' W 151°00'1 0.4 1003.5 14.0
2014-Oct-11 21:30N 47°06' W 151°01'2 2.4 1003.2 14.0
2014-Oct-11 20:30N 47°04' W 151°02'0 0.1 1003.4 14.0
2014-Oct-11 19:30N 47°04' W 151°02'2 1.1 1006.1 14.0
2014-Oct-11 17:30N 47°02' W 151°01'0 0.3 1008.5 14.0
2014-Oct-11 16:30N 47°02' W 151°01'1 0.3 1010.2 14.0
2014-Oct-11 14:30N 47°02' W 151°02'1 0.7 1010.7 14.0
2014-Oct-11 13:30N 47°03' W 151°03'0 0.0 1011.1 14.0
2014-Oct-11 12:30N 47°03' W 151°03'0 0.4 1011.3 14.0
2014-Oct-11 11:30N 47°02' W 151°02'2 1.6 1011.1 14.0
2014-Oct-11 10:30N 47°03' W 151°05'0 0.0 1010.9 14.0
2014-Oct-11 09:30N 47°03' W 151°05'1 0.4 1010.8 14.0
2014-Oct-11 07:30N 47°03' W 151°06'   1010.0 14.0
Track history (hours):
 
Tides and Currents Weather Stations Pressure Air Temp Water Temp Dewpoint Dewpoint Depression Visibility Wind Speed Wind Dir Waves Ship Positions

Drifting buoy 46928

Last reported at 2014-Oct-21 07:30 UTC. Time now 2014-Oct-21 10:20 UTC.
Position N 46°10' W 149°19'.

Barometer 1000.1 mb
Water temperature 12.5 ° C

Date/timePositionNaut miles runAvg speedWind from/ knotsBaromVisibWave heightAir tempDewpointWater temp
2014-Oct-21 07:30N 46°10' W 149°19'0 0.2 1000.1 12.5
2014-Oct-21 06:30N 46°10' W 149°19'2 2.0 1000.3 12.5
2014-Oct-21 05:30N 46°11' W 149°22'0 0.0 1000.1 12.5
2014-Oct-21 04:30N 46°11' W 149°22'1 0.6 1000.1 12.5
2014-Oct-21 03:30N 46°11' W 149°22'3 1.4 999.6 12.5
2014-Oct-21 01:30N 46°14' W 149°23'0 0.0 998.8 12.5
2014-Oct-21 00:30N 46°14' W 149°23'1 0.6 998.4 12.5
2014-Oct-20 23:30N 46°14' W 149°24'3 1.3 998.0 12.5
2014-Oct-20 21:30N 46°15' W 149°27'1 0.7 997.5 12.5
2014-Oct-20 19:30N 46°16' W 149°29'2 1.2 997.0 12.4
2014-Oct-20 17:30N 46°17' W 149°32'0 0.4 996.3 12.4
2014-Oct-20 16:30N 46°17' W 149°33'1 0.7 995.7 12.4
2014-Oct-20 14:30N 46°17' W 149°35'0 0.3 994.4 12.4
2014-Oct-20 13:30N 46°17' W 149°34'0 0.0 994.4 12.4
2014-Oct-20 12:30N 46°17' W 149°34'1 1.5 995.9 12.5
2014-Oct-20 11:30N 46°18' W 149°36'2 2.4 997.6 12.5
2014-Oct-20 10:30N 46°20' W 149°38'0 0.0 999.9 12.5
2014-Oct-20 09:30N 46°20' W 149°38'2 1.0 1001.5 12.5
2014-Oct-20 07:30N 46°20' W 149°41'2 0.9 1004.7 12.5
2014-Oct-20 05:30N 46°20' W 149°44'1 1.5 1007.0 12.5
2014-Oct-20 04:30N 46°20' W 149°46'2 0.8 1007.8 12.5
2014-Oct-20 02:30N 46°19' W 149°47'1 0.6 1008.8 12.5
2014-Oct-20 01:30N 46°18' W 149°48'0 0.1 1009.1 12.6
2014-Oct-19 21:30N 46°18' W 149°48'4 4.5 1009.0 12.6
2014-Oct-19 20:30N 46°23' W 149°47'1 0.3 1008.7 12.6
2014-Oct-19 16:30N 46°24' W 149°48'0 0.4 1006.4 12.7
2014-Oct-19 15:30N 46°24' W 149°48'2 2.1 1005.8 12.7
2014-Oct-19 14:30N 46°26' W 149°50'5 1.2 1005.2 12.8
2014-Oct-19 10:30N 46°26' W 149°57'0 0.0 1003.5 12.8
2014-Oct-19 08:30N 46°26' W 149°57'1 0.5 1002.3 12.8
2014-Oct-19 05:30N 46°26' W 149°55'4 1.0 1000.1 12.8
2014-Oct-19 01:30N 46°30' W 149°54'2 1.9 994.9 12.8
2014-Oct-19 00:30N 46°31' W 149°56'2 2.2 993.9 12.8
2014-Oct-18 23:30N 46°34' W 149°56'0 0.0 992.9 12.8
2014-Oct-18 22:30N 46°34' W 149°56'3 1.5 992.1 12.8
2014-Oct-18 20:30N 46°35' W 149°60'2 1.1 990.4 12.8
2014-Oct-18 18:30N 46°35' W 150°03'0 0.0 987.2 12.8
2014-Oct-18 17:30N 46°35' W 150°03'1 0.9 986.1 12.8
2014-Oct-18 16:30N 46°35' W 150°02'1 0.3 984.5 12.8
2014-Oct-18 14:30N 46°34' W 150°03'1 0.4 982.7 12.8
2014-Oct-18 12:30N 46°35' W 150°03'0 0.0 982.7 12.8
2014-Oct-18 11:30N 46°35' W 150°03'3 3.3 983.7 12.8
2014-Oct-18 10:30N 46°38' W 150°04'0 0.0 984.1 12.8
2014-Oct-18 07:30N 46°38' W 150°04'2 1.0 984.1 12.8
2014-Oct-18 05:30N 46°40' W 150°05'5 1.8 982.9 12.8
2014-Oct-18 02:30N 46°39' W 150°13'4 1.9 980.0 12.8
2014-Oct-18 00:30N 46°36' W 150°15'2 0.8 979.6 12.8
2014-Oct-17 22:30N 46°36' W 150°13'0 0.0 980.9 12.8
2014-Oct-17 21:30N 46°36' W 150°13'0 0.2 982.0 12.8
2014-Oct-17 20:30N 46°36' W 150°13'0 0.0 982.7 12.8
2014-Oct-17 19:30N 46°36' W 150°13'2 0.7 983.5 12.8
2014-Oct-17 16:30N 46°38' W 150°13'2 1.7 985.8 12.8
2014-Oct-17 15:30N 46°39' W 150°15'1 1.5 986.7 12.8
2014-Oct-17 14:30N 46°38' W 150°17'2 1.0 987.4 12.8
2014-Oct-17 12:30N 46°38' W 150°20'3 0.8 988.1 12.8
2014-Oct-17 08:30N 46°35' W 150°23'0 0.5 994.8 12.8
2014-Oct-17 07:30N 46°35' W 150°22'1 0.4 996.2 12.8
2014-Oct-17 04:30N 46°34' W 150°21'0 0.3 999.9 12.9
2014-Oct-17 03:30N 46°33' W 150°21'1 0.7 1000.5 12.9
2014-Oct-17 02:30N 46°34' W 150°21'2 0.8 1001.3 12.9
2014-Oct-17 00:30N 46°36' W 150°22'4 0.4 1002.9 12.9
2014-Oct-16 13:30N 46°33' W 150°27'5 0.6 1004.5 12.8
2014-Oct-16 05:30N 46°39' W 150°27'3 0.5 1002.0 12.9
2014-Oct-16 00:30N 46°37' W 150°29'0 0.4 999.0 12.9
2014-Oct-15 23:30N 46°37' W 150°30'2 0.9 998.8 12.9
2014-Oct-15 21:30N 46°35' W 150°28'5 1.0 998.7 12.9
2014-Oct-15 16:30N 46°37' W 150°22'1 0.7 997.5 12.9
2014-Oct-15 14:30N 46°38' W 150°21'3 1.1 997.7 12.9
2014-Oct-15 11:30N 46°38' W 150°26'0 0.0 1000.1 12.8
2014-Oct-15 08:30N 46°38' W 150°26'2 1.0 1003.5 12.9
2014-Oct-15 06:30N 46°36' W 150°28'3 0.8 1005.6 12.9
2014-Oct-15 02:30N 46°36' W 150°24'0 0.4 1008.7 12.9
2014-Oct-15 01:30N 46°36' W 150°24'3 1.2 1009.5 12.9
2014-Oct-14 22:30N 46°39' W 150°25'2 0.8 1012.5 12.9
2014-Oct-14 20:30N 46°40' W 150°26'3 3.2 1013.6 12.9
2014-Oct-14 19:30N 46°40' W 150°31'0 0.0 1014.3 12.9
2014-Oct-14 18:30N 46°40' W 150°31'0 0.1 1014.2 12.9
2014-Oct-14 15:30N 46°40' W 150°32'1 0.2 1014.2 12.9
2014-Oct-14 11:30N 46°39' W 150°31'6 1.3 1014.6 13.0
2014-Oct-14 06:30N 46°45' W 150°29'0 0.0 1012.2 13.1
2014-Oct-14 05:30N 46°45' W 150°29'3 1.4 1011.6 13.2
2014-Oct-14 03:30N 46°48' W 150°31'3 1.4 1010.6 13.2
2014-Oct-14 01:30N 46°50' W 150°34'2 1.2 1010.8 13.3
2014-Oct-13 23:30N 46°51' W 150°37'0 0.0 1010.8 13.3
2014-Oct-13 22:30N 46°51' W 150°37'1 0.7 1010.9 13.4
2014-Oct-13 20:30N 46°52' W 150°36'1 0.3 1011.6 13.5
2014-Oct-13 17:30N 46°53' W 150°36'1 0.5 1012.4 13.5
2014-Oct-13 15:30N 46°54' W 150°35'0 0.1 1012.6 13.5
2014-Oct-13 14:30N 46°54' W 150°35'1 0.9 1012.8 13.5
2014-Oct-13 13:30N 46°55' W 150°34'9 1.5 1012.8 13.5
2014-Oct-13 07:30N 46°59' W 150°46'0 0.1 1014.2 13.6
2014-Oct-13 03:30N 46°59' W 150°45'1 1.0 1013.5 13.7
2014-Oct-13 02:30N 46°59' W 150°44'1 0.7 1013.5 13.8
2014-Oct-13 01:30N 46°58' W 150°44'1 1.5 1013.3 13.8
2014-Oct-13 00:30N 46°59' W 150°43'2 2.2 1012.5 13.8
2014-Oct-12 23:30N 47°01' W 150°42'0 0.0 1012.4 13.8
2014-Oct-12 22:30N 47°01' W 150°42'1 0.8 1012.7 13.8
2014-Oct-12 20:40N 47°03' W 150°43'3 2.3 1012.9 13.8
2014-Oct-12 19:30N 47°05' W 150°46'2 1.6 1013.1 13.8
2014-Oct-12 18:30N 47°06' W 150°48'3 1.0 1012.9 13.8
2014-Oct-12 15:30N 47°05' W 150°52'0 0.0 1012.4 13.8
2014-Oct-12 14:30N 47°05' W 150°52'2 2.3 1011.8 13.8
2014-Oct-12 13:30N 47°04' W 150°54'0 0.0 1011.3 13.8
2014-Oct-12 12:30N 47°04' W 150°54'3 1.5 1011.6 13.8
2014-Oct-12 10:30N 47°02' W 150°50'1 0.2 1010.8 13.8
2014-Oct-12 07:30N 47°03' W 150°50'5 1.6 1010.2 13.9
2014-Oct-12 04:30N 47°07' W 150°52'0 0.0 1008.1 14.0
2014-Oct-12 03:30N 47°07' W 150°52'3 1.2 1007.0 14.0
2014-Oct-12 00:30N 47°09' W 150°57'3 2.8 1003.6 14.0
2014-Oct-11 23:30N 47°07' W 151°00'1 0.4 1003.5 14.0
2014-Oct-11 21:30N 47°06' W 151°01'2 2.4 1003.2 14.0
2014-Oct-11 20:30N 47°04' W 151°02'0 0.1 1003.4 14.0
2014-Oct-11 19:30N 47°04' W 151°02'2 1.1 1006.1 14.0
2014-Oct-11 17:30N 47°02' W 151°01'0 0.3 1008.5 14.0
2014-Oct-11 16:30N 47°02' W 151°01'1 0.3 1010.2 14.0
2014-Oct-11 14:30N 47°02' W 151°02'1 0.7 1010.7 14.0
2014-Oct-11 13:30N 47°03' W 151°03'0 0.0 1011.1 14.0
2014-Oct-11 12:30N 47°03' W 151°03'0 0.4 1011.3 14.0
2014-Oct-11 11:30N 47°02' W 151°02'2 1.6 1011.1 14.0
2014-Oct-11 10:30N 47°03' W 151°05'0 0.0 1010.9 14.0
2014-Oct-11 09:30N 47°03' W 151°05'1 0.4 1010.8 14.0
2014-Oct-11 07:30N 47°03' W 151°06'   1010.0 14.0

Dump ship's entire track history